Yosemite National Park, CA

9:49 PM PDT on September 14, 2014 (GMT -0700)
RAWS WAWONA CA US | Change Station
CLOSE
Current Station
Personal Weather Station
Location: Tuolumne Meadows, CA
Elevation: 4309 ft
Nearby Weather Stations

Elev 4309 ft 37.53 °N, 119.64 °W | Updated 58 minutes ago

Clear
Clear
70 °F
Feels Like 70 °F
N
0
Wind Variable Wind from North
Gusts 2.0 mph

Today
High -- | Low -- °F
--% Chance of Precip.
Yesterday
High -- | Low -- °F
Precip. -- in
6:39 AM 7:07 PM
Waning Gibbous, 59% visible
Pressure 29.87 in
Visibility 10.0 miles
Clouds Clear
Dew Point 41 °F
Humidity 35%
Rainfall 0.00 in
Snow Depth 0 in , 0 in , 0 in
UV 0 out of 12
Pollen 6.90 out of 12
Air Quality Not available.
Flu Activity Not available.
METAR KO22 150435Z AUTO 00000KT 10SM CLR 22/07 A2987 RMK AO1

More Conditions Fewer Conditions

Pressure 29.87 in
Visibility 10.0 miles
Clouds Clear
Dew Point 41 °F
Humidity 35%
Rainfall 0.00 in
Snow Depth 0 in , 0 in , 0 in
UV 0 out of 12
Pollen 6.90 out of 12
Air Quality Not available.
Flu Activity Not available.
METAR KO22 150435Z AUTO 00000KT 10SM CLR 22/07 A2987 RMK AO1

More Conditions Fewer Conditions

10-Day Weather Forecast

Almanac

Astronomy

Sep. 14, 2014 Rise Set
Actual Time 6:39 AM PDT 7:07 PM PDT
Civil Twilight 6:13 AM PDT 7:33 PM PDT
Nautical Twilight 5:42 AM PDT 8:04 PM PDT
Astronomical Twilight 5:10 AM PDT 8:36 PM PDT
Moon 11:10 PM PDT (9/14) 12:44 PM PDT (9/14)
Length of Visible Light 13h 20m
Length of Day
12h 28m
Tomorrow will be 2m 23s shorter.
Waning Gibbous, 59% of the Moon is Illuminated
Sep 15
Waning Gibbous
Sep 15
Last Quarter
Sep 24
New
Oct 1
First Quarter
Oct 8
Full

Yesterday's Extremes

State Highs State Lows

Community

WunderPhotos

Upload Photos

1,753,401 photos uploaded!

Nearby

Snow Depth

Station Depth Elevation
Tahoe City Cross 0 in 6750 ft
Spratt Creek 0 in 6200 ft
Cedar Pass 0 in 7100 ft
Summit Meadow 1 in 9122 ft
CSS Lab 2 in 6900 ft

Earthquake Activity

City Distance Mag. Time & Date
Inyokern, California 153 miles 3.2 5:56 PM PDT
2014-09-14
Ridgemark, California 119 miles 2.6 12:44 PM PDT
2014-09-12
Sun Valley, Nevada 128 miles 2.7 1:02 PM PDT
2014-09-11
Gonzales, California 119 miles 2.6 11:50 AM PDT
2014-09-11
Minimum magnitude displayed is 2.5.

Coastal Water Temperatures

Place Temperature
No Stations Reporting

Nearby Weather Stations